History for KNYNEWYO831

west village, New York City, NY — Current Conditions
Daily Summary for November 12, 2018
  Current: High: Low: Average:
Temperature: 48.9°F 48.9°F 37.0°F 42.8°F
Dew Point: 38.5°F 38.5°F 25.0°F 31.1°F
Humidity: 67% 78% 43% 62%
Wind Speed: 1.8mph 12.1mph - 2.3mph
Wind Gust: 2.5mph 15.0mph - -
Wind: NE - - North
Pressure: 30.29in 30.44in 30.29in -
Precipitation: 0.00in      
Solar Radiation: 0 watts/m^2      
UV Index: 0.0      
Statistics for the rest of the month
    High: Low: Average:
Temperature:   71.2°F 33.8°F 52.3°F
Dew Point:   65.1°F 12.9°F 40.7°F
Humidity:   99.0% 33.0% 67.9%
Wind Speed:   59.3mph from the West - 8.7mph
Wind Gust:   67.6mph from the West - -
Wind:   - - South
Pressure:   30.55in 29.54in -
Precipitation:   2.06in    
KNYNEWYO831 Weather Graph
Tabular Data for November 12, 2018
Time Temp. Windchill Dew Point Pressure Wind Gust Humidity Rainfall Solar Radiation
00:04 41.2°F - 29.5°F 30.37in 2.5mph 63% 0.00in 0.00 watts/m^2
00:09 41.0°F - 28.9°F 30.38in 2.5mph 62% 0.00in 0.00 watts/m^2
00:14 40.8°F - 28.8°F 30.38in 2.5mph 62% 0.00in 0.00 watts/m^2
00:19 40.8°F - 28.0°F 30.38in 0.0mph 60% 0.00in 0.00 watts/m^2
00:24 40.8°F - 28.0°F 30.38in 2.5mph 60% 0.00in 0.00 watts/m^2
00:29 40.8°F - 28.4°F 30.37in 0.0mph 61% 0.00in 0.00 watts/m^2
00:34 40.8°F - 28.0°F 30.38in 0.0mph 60% 0.00in 0.00 watts/m^2
00:39 40.6°F - 28.2°F 30.38in 0.0mph 61% 0.00in 0.00 watts/m^2
00:44 40.6°F - 29.1°F 30.37in 0.0mph 63% 0.00in 0.00 watts/m^2
00:49 40.6°F - 28.6°F 30.37in 2.5mph 62% 0.00in 0.00 watts/m^2
00:54 40.6°F - 28.6°F 30.38in 0.0mph 62% 0.00in 0.00 watts/m^2
00:59 40.6°F - 28.2°F 30.37in 0.0mph 61% 0.00in 0.00 watts/m^2
01:04 40.6°F - 27.9°F 30.37in 0.0mph 60% 0.00in 0.00 watts/m^2
01:09 40.6°F - 28.6°F 30.38in 2.5mph 62% 0.00in 0.00 watts/m^2
01:14 40.8°F - 28.8°F 30.38in 0.0mph 62% 0.00in 0.00 watts/m^2
01:19 40.8°F - 29.3°F 30.38in 0.0mph 63% 0.00in 0.00 watts/m^2
01:24 40.8°F - 29.3°F 30.38in 0.0mph 63% 0.00in 0.00 watts/m^2
01:29 40.8°F - 29.3°F 30.38in 0.0mph 63% 0.00in 0.00 watts/m^2
01:34 40.8°F - 29.3°F 30.38in 0.0mph 63% 0.00in 0.00 watts/m^2
01:39 41.0°F - 30.2°F 30.38in 2.5mph 65% 0.00in 0.00 watts/m^2
01:44 41.2°F - 29.1°F 30.38in 2.5mph 62% 0.00in 0.00 watts/m^2
01:49 41.2°F 38.5°F 29.5°F 30.38in 4.9mph 63% 0.00in 0.00 watts/m^2
01:54 41.0°F - 29.8°F 30.39in 2.5mph 64% 0.00in 0.00 watts/m^2
01:59 41.0°F - 29.8°F 30.38in 2.5mph 64% 0.00in 0.00 watts/m^2
02:04 41.0°F - 30.9°F 30.39in 4.9mph 67% 0.00in 0.00 watts/m^2
02:09 40.6°F - 30.9°F 30.39in 2.5mph 68% 0.00in 0.00 watts/m^2
02:14 40.5°F 36.0°F 30.0°F 30.39in 7.4mph 66% 0.00in 0.00 watts/m^2
02:19 40.1°F 36.7°F 30.0°F 30.39in 7.4mph 67% 0.00in 0.00 watts/m^2
02:24 39.9°F - 29.8°F 30.39in 0.0mph 67% 0.00in 0.00 watts/m^2
02:29 39.6°F - 30.2°F 30.39in 2.5mph 69% 0.00in 0.00 watts/m^2
02:34 39.4°F - 29.7°F 30.39in 2.5mph 68% 0.00in 0.00 watts/m^2
02:39 39.2°F - 29.1°F 30.39in 2.5mph 67% 0.00in 0.00 watts/m^2
02:44 39.2°F 36.1°F 29.8°F 30.39in 4.9mph 69% 0.00in 0.00 watts/m^2
02:49 39.0°F - 29.7°F 30.39in 2.5mph 69% 0.00in 0.00 watts/m^2
02:54 38.8°F - 29.8°F 30.39in 2.5mph 70% 0.00in 0.00 watts/m^2
02:58 38.8°F - 29.8°F 30.39in 2.5mph 70% 0.00in 0.00 watts/m^2
03:04 38.7°F 36.2°F 30.0°F 30.39in 4.9mph 71% 0.00in 0.00 watts/m^2
03:08 38.5°F 35.6°F 29.8°F 30.39in 7.4mph 71% 0.00in 0.00 watts/m^2
03:13 38.3°F 35.1°F 29.3°F 30.39in 4.9mph 70% 0.00in 0.00 watts/m^2
03:19 38.1°F 33.8°F 28.2°F 30.39in 7.4mph 67% 0.00in 0.00 watts/m^2
03:23 38.1°F 35.5°F 29.5°F 30.38in 4.9mph 71% 0.00in 0.00 watts/m^2
03:29 37.9°F 32.9°F 29.7°F 30.39in 7.4mph 72% 0.00in 0.00 watts/m^2
03:33 37.9°F 34.1°F 29.3°F 30.39in 4.9mph 71% 0.00in 0.00 watts/m^2
03:39 37.9°F 34.4°F 29.3°F 30.39in 4.9mph 71% 0.00in 0.00 watts/m^2
03:44 37.9°F 35.5°F 29.1°F 30.39in 4.9mph 70% 0.00in 0.00 watts/m^2
03:49 37.9°F 34.6°F 29.3°F 30.39in 4.9mph 71% 0.00in 0.00 watts/m^2
03:54 37.8°F - 28.2°F 30.39in 4.9mph 68% 0.00in 0.00 watts/m^2
03:59 37.8°F - 27.9°F 30.39in 2.5mph 67% 0.00in 0.00 watts/m^2
04:04 37.8°F - 27.1°F 30.39in 0.0mph 65% 0.00in 0.00 watts/m^2
04:09 37.8°F - 27.9°F 30.39in 0.0mph 67% 0.00in 0.00 watts/m^2
04:13 37.9°F - 28.4°F 30.39in 2.5mph 68% 0.00in 0.00 watts/m^2
04:19 37.9°F - 29.3°F 30.40in 0.0mph 71% 0.00in 0.00 watts/m^2
04:22 37.9°F - 28.8°F 30.40in 2.5mph 69% 0.00in 0.00 watts/m^2
04:29 38.1°F - 29.8°F 30.40in 2.5mph 72% 0.00in 0.00 watts/m^2
04:34 38.1°F - 29.5°F 30.40in 0.0mph 71% 0.00in 0.00 watts/m^2
04:39 38.3°F - 30.0°F 30.40in 0.0mph 72% 0.00in 0.00 watts/m^2
04:42 38.3°F - 29.7°F 30.40in 0.0mph 71% 0.00in 0.00 watts/m^2
04:49 38.3°F - 29.1°F 30.40in 0.0mph 69% 0.00in 0.00 watts/m^2
04:54 38.3°F - 29.7°F 30.40in 0.0mph 71% 0.00in 0.00 watts/m^2
04:59 38.5°F - 30.2°F 30.39in 0.0mph 72% 0.00in 0.00 watts/m^2
05:04 38.5°F - 30.2°F 30.40in 2.5mph 72% 0.00in 0.00 watts/m^2
05:09 38.7°F - 30.4°F 30.40in 2.5mph 72% 0.00in 0.00 watts/m^2
05:14 38.8°F - 31.6°F 30.40in 2.5mph 75% 0.00in 0.00 watts/m^2
05:19 39.0°F - 31.5°F 30.40in 2.5mph 74% 0.00in 0.00 watts/m^2
05:24 39.2°F - 31.3°F 30.40in 0.0mph 73% 0.00in 0.00 watts/m^2
05:29 39.4°F - 31.1°F 30.40in 2.5mph 72% 0.00in 0.00 watts/m^2
05:34 39.4°F - 31.1°F 30.40in 0.0mph 72% 0.00in 0.00 watts/m^2
05:39 39.4°F - 30.7°F 30.40in 0.0mph 71% 0.00in 0.00 watts/m^2
05:44 39.4°F - 31.1°F 30.39in 0.0mph 72% 0.00in 0.00 watts/m^2
05:49 39.4°F - 31.5°F 30.38in 0.0mph 73% 0.00in 0.00 watts/m^2
05:54 39.2°F - 31.6°F 30.39in 0.0mph 74% 0.00in 0.00 watts/m^2
05:58 39.0°F - 31.5°F 30.39in 2.5mph 74% 0.00in 0.00 watts/m^2
06:04 39.0°F - 31.5°F 30.39in 2.5mph 74% 0.00in 0.00 watts/m^2
06:08 38.8°F - 31.6°F 30.39in 4.9mph 75% 0.00in 0.00 watts/m^2
06:14 38.7°F - 30.7°F 30.39in 4.9mph 73% 0.00in 0.00 watts/m^2
06:19 38.7°F 36.2°F 30.7°F 30.39in 4.9mph 73% 0.00in 0.00 watts/m^2
06:23 38.5°F - 30.2°F 30.39in 2.5mph 72% 0.00in 0.00 watts/m^2
06:29 38.5°F - 30.6°F 30.40in 4.9mph 73% 0.00in 0.00 watts/m^2
06:34 38.3°F - 30.4°F 30.40in 4.9mph 73% 0.00in 0.00 watts/m^2
06:39 38.1°F - 30.2°F 30.40in 2.5mph 73% 0.00in 1.84 watts/m^2
06:44 37.9°F - 30.0°F 30.41in 2.5mph 73% 0.00in 4.28 watts/m^2
06:49 37.8°F - 30.6°F 30.40in 0.0mph 75% 0.00in 8.39 watts/m^2
06:54 37.6°F - 30.0°F 30.40in 2.5mph 74% 0.00in 17.17 watts/m^2
06:59 37.6°F - 30.0°F 30.40in 4.9mph 74% 0.00in 22.77 watts/m^2
07:03 37.4°F - 31.1°F 30.40in 0.0mph 78% 0.00in 28.24 watts/m^2
07:09 37.4°F 34.7°F 30.2°F 30.40in 4.9mph 75% 0.00in 35.79 watts/m^2
07:13 37.2°F - 30.4°F 30.40in 2.5mph 76% 0.00in 39.00 watts/m^2
07:19 37.2°F - 30.4°F 30.41in 4.9mph 76% 0.00in 42.39 watts/m^2
07:24 37.0°F - 30.2°F 30.41in 4.9mph 76% 0.00in 44.86 watts/m^2
07:29 37.0°F - 29.5°F 30.42in 0.0mph 74% 0.00in 46.38 watts/m^2
07:34 37.4°F 35.0°F 28.9°F 30.42in 4.9mph 71% 0.00in 46.51 watts/m^2
07:38 37.6°F - 29.7°F 30.42in 4.9mph 73% 0.00in 47.08 watts/m^2
07:44 37.6°F - 29.3°F 30.42in 2.5mph 72% 0.00in 50.07 watts/m^2
07:49 37.8°F 35.2°F 29.5°F 30.42in 4.9mph 72% 0.00in 53.76 watts/m^2
07:53 37.9°F 34.4°F 29.7°F 30.43in 4.9mph 72% 0.00in 56.93 watts/m^2
07:59 38.1°F - 29.8°F 30.43in 2.5mph 72% 0.00in 59.36 watts/m^2
08:03 38.1°F - 29.8°F 30.43in 2.5mph 72% 0.00in 61.84 watts/m^2
08:08 38.3°F - 29.3°F 30.43in 2.5mph 70% 0.00in 65.05 watts/m^2
08:13 38.7°F - 30.4°F 30.44in 2.5mph 72% 0.00in 69.87 watts/m^2
08:19 38.3°F - 30.4°F 30.43in 2.5mph 73% 0.00in 73.17 watts/m^2
08:24 38.3°F 35.4°F 30.0°F 30.43in 4.9mph 72% 0.00in 77.77 watts/m^2
08:29 38.5°F - 30.2°F 30.43in 2.5mph 72% 0.00in 81.05 watts/m^2
08:34 38.5°F - 29.8°F 30.44in 2.5mph 71% 0.00in 83.99 watts/m^2
08:39 38.8°F - 28.0°F 30.43in 0.0mph 65% 0.00in 88.21 watts/m^2
08:44 39.4°F - 30.0°F 30.42in 2.5mph 69% 0.00in 89.75 watts/m^2
08:48 39.6°F - 29.8°F 30.43in 2.5mph 68% 0.00in 89.32 watts/m^2
08:54 40.3°F - 27.9°F 30.43in 0.0mph 61% 0.00in 96.95 watts/m^2
08:59 40.8°F - 30.0°F 30.43in 0.0mph 65% 0.00in 105.94 watts/m^2
09:03 41.4°F - 30.2°F 30.44in 2.5mph 64% 0.00in 105.82 watts/m^2
09:09 41.7°F - 31.6°F 30.43in 2.5mph 67% 0.00in 103.56 watts/m^2
09:14 41.7°F - 30.9°F 30.42in 2.5mph 65% 0.00in 102.02 watts/m^2
09:19 41.9°F - 31.1°F 30.42in 0.0mph 65% 0.00in 112.04 watts/m^2
09:24 42.3°F - 28.9°F 30.43in 0.0mph 59% 0.00in 118.26 watts/m^2
09:28 42.4°F - 28.8°F 30.42in 0.0mph 58% 0.00in 130.53 watts/m^2
09:34 43.2°F - 29.8°F 30.42in 2.5mph 59% 0.00in 117.28 watts/m^2
09:38 43.3°F - 30.7°F 30.43in 2.5mph 61% 0.00in 113.23 watts/m^2
09:44 43.5°F - 31.8°F 30.42in 0.0mph 63% 0.00in 131.34 watts/m^2
09:49 44.1°F - 29.3°F 30.42in 0.0mph 56% 0.00in 125.80 watts/m^2
09:54 44.4°F - 30.9°F 30.42in 0.0mph 59% 0.00in 126.95 watts/m^2
09:59 44.1°F - 30.7°F 30.42in 2.5mph 59% 0.00in 130.88 watts/m^2
10:04 43.7°F - 29.5°F 30.42in 2.5mph 57% 0.00in 149.54 watts/m^2
10:09 43.7°F - 28.2°F 30.43in 2.5mph 54% 0.00in 150.82 watts/m^2
10:14 44.2°F - 26.2°F 30.42in 0.0mph 49% 0.00in 140.47 watts/m^2
10:18 44.4°F - 29.3°F 30.43in 2.5mph 55% 0.00in 136.67 watts/m^2
10:24 44.2°F - 29.1°F 30.42in 2.5mph 55% 0.00in 143.36 watts/m^2
10:29 44.2°F - 29.1°F 30.42in 0.0mph 55% 0.00in 147.97 watts/m^2
10:34 45.0°F - 28.4°F 30.43in 4.9mph 52% 0.00in 140.98 watts/m^2
10:39 45.5°F - 30.4°F 30.44in 4.9mph 55% 0.00in 159.56 watts/m^2
10:43 45.7°F - 29.5°F 30.44in 2.5mph 53% 0.00in 162.80 watts/m^2
10:49 45.9°F - 28.8°F 30.43in 2.5mph 51% 0.00in 170.43 watts/m^2
10:54 46.8°F - 27.7°F 30.43in 0.0mph 47% 0.00in 181.59 watts/m^2
10:59 47.3°F - 27.5°F 30.43in 2.5mph 46% 0.00in 179.25 watts/m^2
11:03 47.7°F - 27.3°F 30.43in 2.5mph 45% 0.00in 154.40 watts/m^2
11:09 47.7°F - 27.3°F 30.42in 7.4mph 45% 0.00in 147.54 watts/m^2
11:13 47.5°F - 28.2°F 30.43in 4.9mph 47% 0.00in 134.84 watts/m^2
11:19 47.1°F - 27.5°F 30.42in 4.9mph 46% 0.00in 147.63 watts/m^2
11:23 46.8°F - 27.1°F 30.42in 2.5mph 46% 0.00in 142.08 watts/m^2
11:27 46.4°F - 27.3°F 30.42in 2.5mph 47% 0.00in 155.00 watts/m^2
11:33 46.0°F - 28.0°F 30.41in 2.5mph 49% 0.00in 205.67 watts/m^2
11:39 46.0°F - 28.0°F 30.40in 2.5mph 49% 0.00in 161.43 watts/m^2
11:44 46.0°F - 28.4°F 30.40in 4.9mph 50% 0.00in 157.51 watts/m^2
11:49 46.0°F - 29.8°F 30.40in 2.5mph 53% 0.00in 168.64 watts/m^2
11:54 46.2°F 45.0°F 28.6°F 30.40in 4.9mph 50% 0.00in 161.01 watts/m^2
11:59 46.2°F - 30.0°F 30.40in 0.0mph 53% 0.00in 166.38 watts/m^2
12:03 46.4°F - 29.3°F 30.40in 4.9mph 51% 0.00in 184.53 watts/m^2
12:09 46.2°F - 29.7°F 30.40in 4.9mph 52% 0.00in 144.56 watts/m^2
12:14 46.4°F - 29.8°F 30.40in 2.5mph 52% 0.00in 159.05 watts/m^2
12:19 46.4°F - 30.2°F 30.39in 4.9mph 53% 0.00in 162.59 watts/m^2
12:24 46.6°F - 28.0°F 30.38in 2.5mph 48% 0.00in 174.99 watts/m^2
12:29 46.6°F - 28.9°F 30.38in 2.5mph 50% 0.00in 183.04 watts/m^2
12:33 46.6°F - 29.5°F 30.38in 4.9mph 51% 0.00in 170.60 watts/m^2
12:39 46.6°F - 28.4°F 30.38in 4.9mph 49% 0.00in 181.08 watts/m^2
12:43 46.6°F - 28.0°F 30.37in 2.5mph 48% 0.00in 182.96 watts/m^2
12:48 46.6°F - 26.4°F 30.37in 2.5mph 45% 0.00in 179.85 watts/m^2
12:54 46.6°F - 27.0°F 30.36in 4.9mph 46% 0.00in 180.44 watts/m^2
12:59 46.8°F - 27.1°F 30.37in 4.9mph 46% 0.00in 175.58 watts/m^2
13:04 46.8°F - 27.7°F 30.37in 7.4mph 47% 0.00in 169.83 watts/m^2
13:09 46.8°F - 25.5°F 30.37in 2.5mph 43% 0.00in 168.64 watts/m^2
13:14 46.8°F - 26.6°F 30.36in 2.5mph 45% 0.00in 173.07 watts/m^2
13:19 46.9°F - 26.8°F 30.36in 4.9mph 45% 0.00in 179.55 watts/m^2
13:24 46.9°F - 27.3°F 30.37in 4.9mph 46% 0.00in 180.74 watts/m^2
13:29 46.9°F - 27.3°F 30.36in 7.4mph 46% 0.00in 182.87 watts/m^2
13:33 46.9°F - 26.2°F 30.36in 4.9mph 44% 0.00in 177.37 watts/m^2
13:38 47.1°F - 26.4°F 30.36in 7.4mph 44% 0.00in 181.64 watts/m^2
13:42 47.1°F - 27.0°F 30.36in 7.4mph 45% 0.00in 198.30 watts/m^2
13:49 47.3°F - 27.5°F 30.35in 4.9mph 46% 0.00in 192.46 watts/m^2
13:54 47.3°F - 27.5°F 30.36in 7.4mph 46% 0.00in 150.40 watts/m^2
13:59 47.5°F - 28.2°F 30.35in 7.4mph 47% 0.00in 143.49 watts/m^2
14:04 47.5°F - 28.2°F 30.36in 4.9mph 47% 0.00in 128.92 watts/m^2
14:09 47.5°F - 28.2°F 30.36in 4.9mph 47% 0.00in 124.06 watts/m^2
14:13 47.5°F - 28.2°F 30.35in 4.9mph 47% 0.00in 123.42 watts/m^2
14:19 47.5°F - 28.8°F 30.35in 4.9mph 48% 0.00in 118.47 watts/m^2
14:24 47.5°F - 27.1°F 30.35in 2.5mph 45% 0.00in 121.63 watts/m^2
14:29 47.5°F - 27.7°F 30.35in 2.5mph 46% 0.00in 121.50 watts/m^2
14:34 47.5°F - 28.2°F 30.34in 7.4mph 47% 0.00in 109.95 watts/m^2
14:39 47.7°F - 27.9°F 30.35in 2.5mph 46% 0.00in 103.90 watts/m^2
14:44 47.7°F - 27.9°F 30.34in 2.5mph 46% 0.00in 101.04 watts/m^2
14:49 47.7°F - 27.3°F 30.34in 2.5mph 45% 0.00in 94.99 watts/m^2
14:54 47.7°F - 27.9°F 30.34in 4.9mph 46% 0.00in 92.22 watts/m^2
14:59 47.8°F - 28.0°F 30.34in 2.5mph 46% 0.00in 86.93 watts/m^2
15:04 47.8°F - 28.0°F 30.34in 2.5mph 46% 0.00in 81.61 watts/m^2
15:09 47.8°F - 27.5°F 30.35in 2.5mph 45% 0.00in 79.31 watts/m^2
15:14 47.8°F - 29.1°F 30.35in 4.9mph 48% 0.00in 70.61 watts/m^2
15:19 47.8°F - 29.7°F 30.35in 2.5mph 49% 0.00in 63.70 watts/m^2
15:24 47.8°F - 29.7°F 30.36in 2.5mph 49% 0.00in 61.66 watts/m^2
15:29 47.7°F - 30.4°F 30.35in 2.5mph 51% 0.00in 59.49 watts/m^2
15:34 47.7°F - 29.5°F 30.35in 2.5mph 49% 0.00in 52.50 watts/m^2
15:39 47.7°F - 30.0°F 30.34in 2.5mph 50% 0.00in 46.82 watts/m^2
15:44 47.7°F - 30.9°F 30.34in 2.5mph 52% 0.00in 42.17 watts/m^2
15:49 47.8°F - 30.2°F 30.33in 2.5mph 50% 0.00in 39.87 watts/m^2
15:54 47.8°F - 30.2°F 30.34in 2.5mph 50% 0.00in 36.92 watts/m^2
15:59 47.8°F - 30.2°F 30.35in 2.5mph 50% 0.00in 26.85 watts/m^2
16:04 47.8°F - 30.6°F 30.35in 4.9mph 51% 0.00in 18.56 watts/m^2
16:09 47.7°F - 30.9°F 30.35in 0.0mph 52% 0.00in 16.04 watts/m^2
16:14 47.7°F - 31.5°F 30.36in 2.5mph 53% 0.00in 10.10 watts/m^2
16:19 47.8°F - 32.5°F 30.36in 0.0mph 55% 0.00in 6.39 watts/m^2
16:24 47.8°F - 32.0°F 30.35in 0.0mph 54% 0.00in 4.28 watts/m^2
16:29 47.8°F - 32.9°F 30.35in 2.5mph 56% 0.00in 1.95 watts/m^2
16:34 47.7°F - 32.7°F 30.35in 9.8mph 56% 0.00in 0.00 watts/m^2
16:39 47.7°F - 32.7°F 30.36in 4.9mph 56% 0.00in 0.00 watts/m^2
16:44 47.5°F - 33.1°F 30.35in 4.9mph 57% 0.00in 0.00 watts/m^2
16:49 47.5°F - 32.5°F 30.35in 4.9mph 56% 0.00in 0.00 watts/m^2
16:54 47.3°F - 32.9°F 30.36in 2.5mph 57% 0.00in 0.00 watts/m^2
16:59 47.3°F - 32.9°F 30.35in 4.9mph 57% 0.00in 0.00 watts/m^2
17:04 47.3°F - 33.8°F 30.36in 2.5mph 59% 0.00in 0.00 watts/m^2
17:09 47.3°F - 33.3°F 30.35in 2.5mph 58% 0.00in 0.00 watts/m^2
17:14 47.3°F - 34.2°F 30.35in 2.5mph 60% 0.00in 0.00 watts/m^2
17:19 47.5°F - 34.3°F 30.35in 9.8mph 60% 0.00in 0.00 watts/m^2
17:24 47.5°F - 34.7°F 30.35in 4.9mph 61% 0.00in 0.00 watts/m^2
17:29 47.5°F - 34.7°F 30.35in 9.8mph 61% 0.00in 0.00 watts/m^2
17:34 47.3°F - 34.5°F 30.35in 12.3mph 61% 0.00in 0.00 watts/m^2
17:39 47.3°F - 34.9°F 30.35in 7.4mph 62% 0.00in 0.00 watts/m^2
17:44 47.3°F - 34.9°F 30.35in 4.9mph 62% 0.00in 0.00 watts/m^2
17:49 47.3°F - 35.4°F 30.35in 4.9mph 63% 0.00in 0.00 watts/m^2
17:54 47.3°F - 35.4°F 30.35in 4.9mph 63% 0.00in 0.00 watts/m^2
17:59 47.3°F - 35.4°F 30.35in 7.4mph 63% 0.00in 0.00 watts/m^2
18:04 47.3°F - 35.4°F 30.35in 12.3mph 63% 0.00in 0.00 watts/m^2
18:09 47.3°F - 35.8°F 30.35in 7.4mph 64% 0.00in 0.00 watts/m^2
18:14 47.3°F - 36.1°F 30.35in 2.5mph 65% 0.00in 0.00 watts/m^2
18:19 47.3°F - 36.1°F 30.35in 4.9mph 65% 0.00in 0.00 watts/m^2
18:24 47.5°F - 36.7°F 30.35in 4.9mph 66% 0.00in 0.00 watts/m^2
18:29 47.5°F - 36.7°F 30.35in 4.9mph 66% 0.00in 0.00 watts/m^2
18:34 47.5°F - 36.7°F 30.34in 4.9mph 66% 0.00in 0.00 watts/m^2
18:39 47.5°F - 36.7°F 30.34in 9.8mph 66% 0.00in 0.00 watts/m^2
18:44 47.5°F - 37.0°F 30.33in 9.8mph 67% 0.00in 0.00 watts/m^2
18:49 47.5°F - 37.0°F 30.34in 7.4mph 67% 0.00in 0.00 watts/m^2
18:54 47.5°F - 37.0°F 30.32in 7.4mph 67% 0.00in 0.00 watts/m^2
18:59 47.5°F - 37.4°F 30.33in 4.9mph 68% 0.00in 0.00 watts/m^2
19:04 47.5°F - 37.0°F 30.33in 4.9mph 67% 0.00in 0.00 watts/m^2
19:09 47.3°F - 36.9°F 30.34in 9.8mph 67% 0.00in 0.00 watts/m^2
19:14 47.5°F - 37.0°F 30.33in 9.8mph 67% 0.00in 0.00 watts/m^2
19:19 47.5°F - 37.4°F 30.32in 7.4mph 68% 0.00in 0.00 watts/m^2
19:24 47.5°F - 37.0°F 30.32in 7.4mph 67% 0.00in 0.00 watts/m^2
19:29 47.7°F - 37.2°F 30.32in 2.5mph 67% 0.00in 0.00 watts/m^2
19:34 47.7°F - 37.2°F 30.32in 12.3mph 67% 0.00in 0.00 watts/m^2
19:39 47.7°F - 37.2°F 30.32in 7.4mph 67% 0.00in 0.00 watts/m^2
19:44 47.7°F - 37.6°F 30.33in 2.5mph 68% 0.00in 0.00 watts/m^2
19:49 47.7°F - 37.9°F 30.33in 4.9mph 69% 0.00in 0.00 watts/m^2
19:54 47.8°F - 37.8°F 30.32in 7.4mph 68% 0.00in 0.00 watts/m^2
19:59 47.7°F - 37.6°F 30.33in 7.4mph 68% 0.00in 0.00 watts/m^2
20:04 47.5°F - 37.4°F 30.33in 4.9mph 68% 0.00in 0.00 watts/m^2
20:09 47.5°F - 37.4°F 30.33in 7.4mph 68% 0.00in 0.00 watts/m^2
20:14 47.5°F - 37.4°F 30.33in 7.4mph 68% 0.00in 0.00 watts/m^2
20:19 47.5°F - 37.4°F 30.33in 7.4mph 68% 0.00in 0.00 watts/m^2
20:24 47.5°F - 37.4°F 30.33in 4.9mph 68% 0.00in 0.00 watts/m^2
20:29 47.5°F - 37.4°F 30.33in 4.9mph 68% 0.00in 0.00 watts/m^2
20:34 47.5°F - 37.4°F 30.33in 4.9mph 68% 0.00in 0.00 watts/m^2
20:39 47.7°F - 37.6°F 30.33in 7.4mph 68% 0.00in 0.00 watts/m^2
20:44 47.7°F - 37.6°F 30.32in 9.8mph 68% 0.00in 0.00 watts/m^2
20:49 47.7°F - 37.6°F 30.32in 4.9mph 68% 0.00in 0.00 watts/m^2
20:54 47.8°F - 37.8°F 30.32in 4.9mph 68% 0.00in 0.00 watts/m^2
20:59 48.0°F - 37.6°F 30.31in 2.5mph 67% 0.00in 0.00 watts/m^2
21:04 48.2°F - 37.8°F 30.31in 2.5mph 67% 0.00in 0.00 watts/m^2
21:09 48.4°F - 37.9°F 30.30in 7.4mph 67% 0.00in 0.00 watts/m^2
21:14 48.4°F - 38.3°F 30.30in 2.5mph 68% 0.00in 0.00 watts/m^2
21:19 48.6°F - 38.5°F 30.30in 2.5mph 68% 0.00in 0.00 watts/m^2
21:24 48.6°F - 38.1°F 30.30in 4.9mph 67% 0.00in 0.00 watts/m^2
21:29 48.4°F - 38.3°F 30.30in 4.9mph 68% 0.00in 0.00 watts/m^2
21:34 48.4°F - 38.3°F 30.30in 2.5mph 68% 0.00in 0.00 watts/m^2
21:39 48.4°F - 38.3°F 30.31in 2.5mph 68% 0.00in 0.00 watts/m^2
21:44 48.6°F - 38.1°F 30.30in 2.5mph 67% 0.00in 0.00 watts/m^2
21:49 48.7°F - 38.3°F 30.30in 2.5mph 67% 0.00in 0.00 watts/m^2
21:54 48.7°F - 38.3°F 30.30in 2.5mph 67% 0.00in 0.00 watts/m^2
Comma Delimited File
Powered by Weather Underground, Inc.